createdAt,value
2022-12-28T00:02:18.774Z,101080.08
2022-12-28T00:04:47.829Z,101081.86
2022-12-28T00:07:16.270Z,101089.83
2022-12-28T00:09:44.602Z,101095.41
2022-12-28T00:12:13.005Z,101090.11
2022-12-28T00:14:41.507Z,101087.37
2022-12-28T00:17:10.211Z,101088.22
2022-12-28T00:19:38.494Z,101091.86
2022-12-28T00:22:06.885Z,101084.08
2022-12-28T00:24:35.208Z,101085.43
2022-12-28T00:27:03.688Z,101083.52
2022-12-28T00:29:32.095Z,101090.22
2022-12-28T00:32:00.590Z,101089.70
2022-12-28T00:34:28.994Z,101088.85
2022-12-28T00:37:09.482Z,101084.30
2022-12-28T00:39:42.405Z,101082.95
2022-12-28T00:42:11.392Z,101086.23
2022-12-28T00:44:40.123Z,101083.80
2022-12-28T00:47:08.489Z,101081.36
2022-12-28T00:49:36.952Z,101076.19
2022-12-28T00:52:05.452Z,101071.98
2022-12-28T00:54:33.841Z,101076.43
2022-12-28T00:57:02.184Z,101077.41
2022-12-28T00:59:30.511Z,101075.12
2022-12-28T01:01:58.911Z,101075.03
2022-12-28T01:04:27.347Z,101072.73
2022-12-28T01:06:55.651Z,101067.66
2022-12-28T01:09:24.215Z,101067.97
2022-12-28T01:11:52.558Z,101063.11
2022-12-28T01:14:20.856Z,101060.13
2022-12-28T01:16:49.234Z,101054.00
2022-12-28T01:19:23.170Z,101046.96
2022-12-28T01:21:52.061Z,101049.92
2022-12-28T01:24:20.872Z,101044.95
2022-12-28T01:26:49.231Z,101042.41
2022-12-28T01:29:17.556Z,101038.86
2022-12-28T01:31:46.052Z,101042.52
2022-12-28T01:34:14.876Z,101034.84
2022-12-28T01:36:43.293Z,101027.98
2022-12-28T01:39:11.645Z,101024.41
2022-12-28T01:41:41.844Z,101026.83
2022-12-28T01:44:13.770Z,101024.20
2022-12-28T01:47:09.479Z,101021.21
2022-12-28T01:50:05.660Z,101017.70
2022-12-28T01:52:42.465Z,101018.64
2022-12-28T01:55:21.808Z,101023.20
2022-12-28T01:58:09.119Z,101023.65
2022-12-28T02:00:37.585Z,101014.78
2022-12-28T02:03:13.327Z,101009.33
2022-12-28T02:05:46.190Z,101011.77
2022-12-28T02:08:29.497Z,101007.50
2022-12-28T02:10:58.030Z,101005.00
2022-12-28T02:13:26.376Z,101003.71
2022-12-28T02:15:54.711Z,100994.52
2022-12-28T02:18:25.468Z,100993.45
2022-12-28T02:21:09.351Z,100988.41
2022-12-28T02:24:12.101Z,100981.66
2022-12-28T02:27:04.195Z,100973.04
2022-12-28T02:30:08.175Z,100961.11
2022-12-28T02:32:56.496Z,100955.72
2022-12-28T02:35:52.305Z,100948.09
2022-12-28T02:38:40.433Z,100949.55
2022-12-28T02:41:17.738Z,100948.45
2022-12-28T02:43:46.764Z,100947.00
2022-12-28T02:46:40.626Z,100945.71
2022-12-28T02:49:46.954Z,100945.64
2022-12-28T02:52:39.593Z,100947.31
2022-12-28T02:55:39.869Z,100936.77
2022-12-28T02:58:35.889Z,100935.86
2022-12-28T03:01:29.322Z,100936.86
2022-12-28T03:04:18.809Z,100935.58
2022-12-28T03:07:23.581Z,100932.73
2022-12-28T03:10:10.750Z,100923.56
2022-12-28T03:13:28.051Z,100915.23
2022-12-28T03:16:03.415Z,100921.21
2022-12-28T03:19:05.480Z,100917.37
2022-12-28T03:21:54.883Z,100908.89
2022-12-28T03:24:42.456Z,100908.85
2022-12-28T03:27:33.912Z,100904.30
2022-12-28T03:30:31.653Z,100891.55
2022-12-28T03:33:00.788Z,100890.05
2022-12-28T03:35:44.693Z,100884.60
2022-12-28T03:38:27.550Z,100887.66
2022-12-28T03:41:08.328Z,100883.66
2022-12-28T03:43:46.719Z,100889.89
2022-12-28T03:47:05.720Z,100887.25
2022-12-28T03:49:34.232Z,100879.92
2022-12-28T03:52:03.577Z,100880.63
2022-12-28T03:54:32.059Z,100879.36
2022-12-28T03:57:00.418Z,100874.03
2022-12-28T03:59:28.873Z,100864.95
2022-12-28T04:01:57.356Z,100854.99
2022-12-28T04:04:25.829Z,100853.98
2022-12-28T04:06:54.159Z,100848.00
2022-12-28T04:09:23.133Z,100850.63
2022-12-28T04:11:51.442Z,100853.92
2022-12-28T04:14:19.863Z,100855.31
2022-12-28T04:16:48.237Z,100847.93
2022-12-28T04:19:16.753Z,100845.48
2022-12-28T04:21:45.073Z,100844.05
2022-12-28T04:24:13.420Z,100836.93
2022-12-28T04:26:41.800Z,100835.67
2022-12-28T04:29:10.112Z,100825.99
2022-12-28T04:31:38.574Z,100821.96
2022-12-28T04:34:07.362Z,100815.34
2022-12-28T04:36:35.755Z,100809.91
2022-12-28T04:39:04.161Z,100806.69
2022-12-28T04:41:32.508Z,100806.73
2022-12-28T04:44:01.192Z,100802.14
2022-12-28T04:46:29.690Z,100801.29
2022-12-28T04:48:58.063Z,100801.45
2022-12-28T04:51:28.784Z,100802.06
2022-12-28T04:53:58.075Z,100799.61
2022-12-28T04:56:27.456Z,100797.05
2022-12-28T04:58:58.458Z,100796.77
2022-12-28T05:01:27.657Z,100794.89
2022-12-28T05:03:58.568Z,100792.52
2022-12-28T05:06:29.417Z,100782.58
2022-12-28T05:08:58.211Z,100775.62
2022-12-28T05:11:29.587Z,100779.92
2022-12-28T05:13:58.748Z,100768.60
2022-12-28T05:16:29.139Z,100762.95
2022-12-28T05:18:57.934Z,100757.41
2022-12-28T05:21:28.696Z,100750.52
2022-12-28T05:23:57.750Z,100750.09
2022-12-28T05:26:29.453Z,100747.48
2022-12-28T05:28:58.877Z,100745.38
2022-12-28T05:31:28.543Z,100745.84
2022-12-28T05:33:56.937Z,100742.65
2022-12-28T05:36:26.972Z,100737.76
2022-12-28T05:38:56.920Z,100731.14
2022-12-28T05:41:29.919Z,100730.51
2022-12-28T05:43:59.812Z,100726.05
2022-12-28T05:46:34.549Z,100724.20
2022-12-28T05:49:03.496Z,100721.86
2022-12-28T05:51:32.904Z,100724.85
2022-12-28T05:54:06.015Z,100719.09
2022-12-28T05:56:35.045Z,100713.52
2022-12-28T05:59:07.015Z,100716.22
2022-12-28T06:01:39.332Z,100712.05
2022-12-28T06:04:16.063Z,100708.95
2022-12-28T06:06:46.321Z,100713.36
2022-12-28T06:09:15.280Z,100716.04
2022-12-28T06:11:43.760Z,100718.36
2022-12-28T06:14:12.209Z,100719.27
2022-12-28T06:16:42.744Z,100716.77
2022-12-28T06:19:14.803Z,100712.61
2022-12-28T06:21:43.247Z,100710.45
2022-12-28T06:24:13.859Z,100708.13
2022-12-28T06:26:44.877Z,100702.21
2022-12-28T06:29:13.213Z,100699.75
2022-12-28T06:31:47.235Z,100695.92
2022-12-28T06:34:15.794Z,100696.58
2022-12-28T06:36:46.462Z,100692.45
2022-12-28T06:39:15.240Z,100695.55
2022-12-28T06:41:43.815Z,100694.70
2022-12-28T06:44:13.813Z,100700.88
2022-12-28T06:46:42.296Z,100703.64
2022-12-28T06:49:10.784Z,100711.34
2022-12-28T06:51:41.511Z,100711.40
2022-12-28T06:54:10.757Z,100712.09
2022-12-28T06:56:39.432Z,100714.32
2022-12-28T06:59:08.640Z,100715.16
2022-12-28T07:01:40.564Z,100711.68
2022-12-28T07:04:10.695Z,100713.12
2022-12-28T07:06:44.390Z,100708.55
2022-12-28T07:09:16.646Z,100710.55
2022-12-28T07:11:45.725Z,100707.95
2022-12-28T07:14:14.183Z,100704.39
2022-12-28T07:16:42.585Z,100701.94
2022-12-28T07:19:11.076Z,100702.95
2022-12-28T07:21:40.403Z,100700.95
2022-12-28T07:24:09.197Z,100700.36
2022-12-28T07:26:38.550Z,100704.25
2022-12-28T07:29:08.865Z,100702.60
2022-12-28T07:31:45.482Z,100703.31
2022-12-28T07:34:16.215Z,100702.44
2022-12-28T07:36:44.949Z,100697.88
2022-12-28T07:39:13.365Z,100696.23
2022-12-28T07:41:41.765Z,100696.30
2022-12-28T07:44:10.244Z,100700.29
2022-12-28T07:46:38.643Z,100702.54
2022-12-28T07:49:07.782Z,100700.50
2022-12-28T07:51:38.623Z,100697.77
2022-12-28T07:54:07.648Z,100695.52
2022-12-28T07:59:06.078Z,100702.63
2022-12-28T08:01:37.064Z,100702.81
2022-12-28T08:04:09.797Z,100695.77
2022-12-28T08:06:41.309Z,100688.20
2022-12-28T08:09:13.669Z,100685.48
2022-12-28T08:11:45.084Z,100691.91
2022-12-28T08:14:13.436Z,100686.23
2022-12-28T08:16:44.536Z,100686.59
2022-12-28T08:19:13.698Z,100681.91
2022-12-28T08:21:45.032Z,100682.99
2022-12-28T08:24:17.138Z,100680.81
2022-12-28T08:26:47.295Z,100682.11
2022-12-28T08:29:20.197Z,100682.98
2022-12-28T08:31:52.663Z,100679.02
2022-12-28T08:34:27.330Z,100671.11
2022-12-28T08:36:56.636Z,100668.23
2022-12-28T08:39:25.293Z,100673.39
2022-12-28T08:41:53.659Z,100669.33
2022-12-28T08:44:21.972Z,100666.97
2022-12-28T08:46:50.430Z,100668.02
2022-12-28T08:49:18.750Z,100663.45
2022-12-28T08:51:49.969Z,100661.15
2022-12-28T08:54:18.290Z,100660.15
2022-12-28T08:56:46.784Z,100658.92
2022-12-28T08:59:18.701Z,100652.80
2022-12-28T09:01:48.153Z,100654.74
2022-12-28T09:04:22.071Z,100646.23
2022-12-28T09:06:51.018Z,100642.58
2022-12-28T09:09:21.183Z,100638.20
2022-12-28T09:11:50.183Z,100641.46
2022-12-28T09:14:23.868Z,100639.80
2022-12-28T09:16:54.346Z,100640.45
2022-12-28T09:19:23.533Z,100640.08
2022-12-28T09:21:55.459Z,100626.98
2022-12-28T09:24:23.894Z,100626.15
2022-12-28T09:26:54.810Z,100624.24
2022-12-28T09:29:23.358Z,100621.59
2022-12-28T09:31:51.703Z,100617.46
2022-12-28T09:34:37.255Z,100620.81
2022-12-28T09:37:08.542Z,100621.46
2022-12-28T09:39:37.110Z,100610.02
2022-12-28T09:42:28.156Z,100598.20
2022-12-28T09:45:12.935Z,100581.83
2022-12-28T09:47:50.749Z,100573.54
2022-12-28T09:50:19.169Z,100574.15
2022-12-28T09:53:06.711Z,100571.61
2022-12-28T09:55:43.121Z,100569.77
2022-12-28T09:58:16.512Z,100568.37
2022-12-28T10:00:56.043Z,100567.15
2022-12-28T10:03:36.329Z,100560.23
2022-12-28T10:06:22.154Z,100558.68
2022-12-28T10:08:56.751Z,100560.75
2022-12-28T10:11:43.725Z,100552.02
2022-12-28T10:14:35.724Z,100551.36
2022-12-28T10:17:06.397Z,100544.42
2022-12-28T10:19:34.843Z,100551.48
2022-12-28T10:22:07.327Z,100540.59
2022-12-28T10:24:36.308Z,100536.51
2022-12-28T10:27:07.618Z,100527.30
2022-12-28T10:29:36.018Z,100518.62
2022-12-28T10:32:14.721Z,100518.13
2022-12-28T10:34:59.003Z,100512.79
2022-12-28T10:37:32.467Z,100516.94
2022-12-28T10:40:22.601Z,100516.22
2022-12-28T10:42:54.706Z,100512.80
2022-12-28T10:45:38.167Z,100509.50
2022-12-28T10:48:25.102Z,100508.40
2022-12-28T10:51:14.753Z,100502.91
2022-12-28T10:53:48.578Z,100507.28
2022-12-28T10:56:25.705Z,100501.60
2022-12-28T10:59:20.048Z,100499.27
2022-12-28T11:01:48.522Z,100498.69
2022-12-28T11:04:24.297Z,100496.68
2022-12-28T11:07:00.999Z,100489.49
2022-12-28T11:09:32.107Z,100489.83
2022-12-28T11:12:36.877Z,100481.27
2022-12-28T11:15:06.180Z,100472.21
2022-12-28T11:17:37.760Z,100470.65
2022-12-28T11:20:18.667Z,100463.32
2022-12-28T11:22:47.665Z,100465.42
2022-12-28T11:25:18.337Z,100460.96
2022-12-28T11:27:48.161Z,100454.27
2022-12-28T11:30:19.034Z,100448.69
2022-12-28T11:33:00.960Z,100443.23
2022-12-28T11:35:33.484Z,100443.02
2022-12-28T11:38:07.226Z,100437.69
2022-12-28T11:40:44.619Z,100433.91
2022-12-28T11:43:31.143Z,100427.93
2022-12-28T11:46:05.273Z,100423.38
2022-12-28T11:48:42.834Z,100419.71
2022-12-28T11:51:19.674Z,100416.84
2022-12-28T11:53:48.233Z,100408.77
2022-12-28T11:56:23.972Z,100398.49
2022-12-28T11:58:58.332Z,100389.01
2022-12-28T12:01:29.621Z,100381.36
2022-12-28T12:03:58.139Z,100375.65
2022-12-28T12:06:48.714Z,100366.30
2022-12-28T12:09:25.698Z,100357.66
2022-12-28T12:11:59.955Z,100353.71
2022-12-28T12:14:41.125Z,100344.05
2022-12-28T12:17:47.300Z,100337.69
2022-12-28T12:20:55.694Z,100335.79
2022-12-28T12:23:32.795Z,100331.77
2022-12-28T12:26:19.355Z,100327.89
2022-12-28T12:28:51.882Z,100331.59
2022-12-28T12:31:37.615Z,100337.16
2022-12-28T12:34:23.285Z,100332.85
2022-12-28T12:37:03.657Z,100326.41
2022-12-28T12:40:14.329Z,100317.88
2022-12-28T12:43:07.096Z,100317.91
2022-12-28T12:45:54.445Z,100311.83
2022-12-28T12:48:50.183Z,100311.40
2022-12-28T12:51:28.359Z,100310.88
2022-12-28T12:54:13.286Z,100310.34
2022-12-28T12:57:07.926Z,100310.50
2022-12-28T13:00:18.538Z,100303.10
2022-12-28T13:03:13.278Z,100305.36
2022-12-28T13:05:47.807Z,100300.08
2022-12-28T13:08:35.053Z,100293.88
2022-12-28T13:11:04.196Z,100286.50
2022-12-28T13:13:38.813Z,100284.98
2022-12-28T13:16:25.440Z,100274.72
2022-12-28T13:18:54.549Z,100272.13
2022-12-28T13:21:26.148Z,100271.56
2022-12-28T13:23:55.206Z,100269.39
2022-12-28T13:26:28.895Z,100265.14
2022-12-28T13:29:08.295Z,100265.75
2022-12-28T13:31:39.750Z,100264.56
2022-12-28T13:34:24.325Z,100268.52
2022-12-28T13:37:01.495Z,100261.42
2022-12-28T13:39:41.636Z,100261.77
2022-12-28T13:42:35.162Z,100255.45
2022-12-28T13:45:06.580Z,100255.78
2022-12-28T13:47:47.369Z,100244.81
2022-12-28T13:50:19.917Z,100238.45
2022-12-28T13:52:57.008Z,100238.26
2022-12-28T13:55:34.656Z,100236.80
2022-12-28T13:58:14.471Z,100241.27
2022-12-28T14:00:49.884Z,100232.11
2022-12-28T14:03:19.699Z,100235.63
2022-12-28T14:05:55.105Z,100235.19
2022-12-28T14:08:23.612Z,100230.95
2022-12-28T14:10:52.383Z,100227.45
2022-12-28T14:13:22.041Z,100230.56
2022-12-28T14:15:51.501Z,100235.30
2022-12-28T14:18:20.523Z,100239.19
2022-12-28T14:20:54.002Z,100235.89
2022-12-28T14:23:28.899Z,100233.14
2022-12-28T14:26:02.492Z,100236.23
2022-12-28T14:28:44.401Z,100235.56
2022-12-28T14:31:21.490Z,100234.77
2022-12-28T14:33:57.552Z,100231.36
2022-12-28T14:36:33.179Z,100230.09
2022-12-28T14:39:05.253Z,100228.30
2022-12-28T14:41:39.762Z,100224.19
2022-12-28T14:44:21.773Z,100227.36
2022-12-28T14:46:54.245Z,100220.30
2022-12-28T14:49:28.784Z,100215.95
2022-12-28T14:52:09.117Z,100218.58
2022-12-28T14:55:28.006Z,100216.42
2022-12-28T14:58:17.059Z,100208.04
2022-12-28T15:01:09.597Z,100204.05
2022-12-28T15:03:56.003Z,100203.09
2022-12-28T15:06:31.049Z,100202.83
2022-12-28T15:09:01.280Z,100203.05
2022-12-28T15:11:31.248Z,100197.98
2022-12-28T15:13:59.928Z,100196.98
2022-12-28T15:16:28.493Z,100191.86
2022-12-28T15:18:57.848Z,100194.07
2022-12-28T15:21:26.418Z,100200.16
2022-12-28T15:23:56.498Z,100202.65
2022-12-28T15:26:25.241Z,100206.98
2022-12-28T15:28:53.971Z,100211.35
2022-12-28T19:47:05.539Z,100145.45
2022-12-28T19:49:34.439Z,100147.81
2022-12-28T19:52:03.032Z,100141.31
2022-12-28T19:54:31.422Z,100143.14
2022-12-28T19:56:59.838Z,100142.50
2022-12-28T19:59:28.271Z,100140.02
2022-12-28T20:01:56.707Z,100134.84
2022-12-28T20:04:25.170Z,100127.21
2022-12-28T20:06:53.697Z,100129.77
2022-12-28T20:09:22.646Z,100128.27
2022-12-28T20:11:51.122Z,100129.66
2022-12-28T20:14:25.200Z,100124.09
2022-12-28T20:16:54.267Z,100118.95
2022-12-28T20:19:22.705Z,100116.98
2022-12-28T20:21:51.243Z,100118.92
2022-12-28T20:24:21.767Z,100111.30
2022-12-28T20:26:50.319Z,100110.21
2022-12-28T20:29:18.843Z,100109.64
2022-12-28T20:31:51.118Z,100109.73
2022-12-28T20:34:19.671Z,100118.73
2022-12-28T20:36:48.048Z,100123.06
2022-12-28T20:39:16.469Z,100123.44
2022-12-28T20:42:03.789Z,100117.89
2022-12-28T20:44:34.104Z,100114.83
2022-12-28T20:47:02.757Z,100113.58
2022-12-28T20:49:31.803Z,100117.70
2022-12-28T20:52:00.523Z,100120.17
2022-12-28T20:54:29.587Z,100117.68
2022-12-28T20:56:57.894Z,100117.58
2022-12-28T20:59:26.429Z,100119.63
2022-12-28T21:01:55.175Z,100120.89
2022-12-28T21:04:24.830Z,100119.29
2022-12-28T21:06:54.493Z,100112.46
2022-12-28T21:09:23.090Z,100102.36
2022-12-28T21:11:51.560Z,100099.71
2022-12-28T21:14:20.181Z,100104.51
2022-12-28T21:16:48.783Z,100099.60
2022-12-28T21:19:17.653Z,100105.56
2022-12-28T21:21:48.398Z,100100.40
2022-12-28T21:24:16.918Z,100101.76
2022-12-28T21:26:48.436Z,100106.45
2022-12-28T21:29:22.035Z,100106.97
2022-12-28T21:31:54.819Z,100100.35
2022-12-28T21:34:23.844Z,100098.06
2022-12-28T21:36:52.912Z,100102.40
2022-12-28T21:39:21.881Z,100101.80
2022-12-28T21:41:50.278Z,100093.00
2022-12-28T21:44:24.409Z,100092.91
2022-12-28T21:46:53.928Z,100093.95
2022-12-28T21:49:22.423Z,100091.19
2022-12-28T21:51:51.591Z,100086.20
2022-12-28T21:54:22.055Z,100080.42
2022-12-28T21:56:56.176Z,100077.73
2022-12-28T21:59:25.826Z,100073.69
2022-12-28T22:02:12.938Z,100070.98
2022-12-28T22:05:03.534Z,100078.35
2022-12-28T22:07:35.653Z,100073.23
2022-12-28T22:10:23.021Z,100069.73
2022-12-28T22:12:51.361Z,100066.02
2022-12-28T22:15:41.740Z,100065.55
2022-12-28T22:18:52.738Z,100066.30
2022-12-28T22:21:09.957Z,100069.46
2022-12-28T22:23:38.341Z,100068.39
2022-12-28T22:26:07.306Z,100062.49
2022-12-28T22:28:35.851Z,100067.02
2022-12-28T22:31:06.622Z,100064.92
2022-12-28T22:33:35.543Z,100063.91
2022-12-28T22:36:18.527Z,100063.73
2022-12-28T22:38:47.202Z,100060.96
2022-12-28T22:41:15.575Z,100061.52
2022-12-28T22:43:43.882Z,100066.86
2022-12-28T22:46:12.353Z,100066.73
2022-12-28T22:48:40.758Z,100058.91
2022-12-28T22:51:13.436Z,100045.05
2022-12-28T22:53:43.001Z,100038.62
2022-12-28T22:56:20.562Z,100030.39
2022-12-28T22:58:49.129Z,100007.46
2022-12-28T23:01:19.730Z,100020.12
2022-12-28T23:03:48.787Z,100026.79
2022-12-28T23:06:19.532Z,100033.92
2022-12-28T23:08:48.288Z,100030.80
2022-12-28T23:11:36.939Z,100029.57
2022-12-28T23:14:38.377Z,100024.86
2022-12-28T23:17:13.470Z,100017.99
2022-12-28T23:20:02.646Z,100005.79
2022-12-28T23:22:53.330Z,99995.64
2022-12-28T23:25:43.962Z,99999.56
2022-12-28T23:28:16.590Z,99998.65
2022-12-28T23:30:48.569Z,99999.86
2022-12-28T23:33:18.746Z,100000.73
2022-12-28T23:35:47.132Z,100000.63
2022-12-28T23:38:15.680Z,99996.23
2022-12-28T23:40:44.577Z,99994.80
2022-12-28T23:43:12.936Z,99986.34
2022-12-28T23:45:41.273Z,99986.13
2022-12-28T23:48:09.585Z,99984.66
2022-12-28T23:50:37.890Z,99988.96
2022-12-28T23:53:06.258Z,99976.16
2022-12-28T23:55:35.703Z,99967.60
2022-12-28T23:58:04.400Z,99961.31
